createdAt,value
2019-02-15T06:09:28.504Z,9.77
2019-02-15T06:11:57.708Z,9.50
2019-02-15T06:14:27.099Z,10.50
2019-02-15T06:16:56.707Z,8.27
2019-02-15T06:19:26.327Z,9.70
2019-02-15T06:21:55.044Z,8.70
2019-02-15T06:24:23.832Z,8.70
2019-02-15T06:26:54.418Z,9.40
2019-02-15T06:29:24.039Z,9.13
2019-02-15T06:31:53.147Z,8.67
2019-02-15T06:34:22.822Z,8.47
2019-02-15T06:36:51.880Z,9.57
2019-02-15T06:39:20.592Z,8.90
2019-02-15T06:41:50.079Z,9.63
2019-02-15T06:44:19.639Z,8.97
2019-02-15T06:46:49.133Z,9.30
2019-02-15T06:49:18.336Z,9.57
2019-02-15T06:51:47.323Z,8.73
2019-02-15T06:54:17.691Z,9.70
2019-02-15T06:56:46.821Z,9.13
2019-02-15T07:00:19.115Z,9.20
2019-02-15T07:03:02.079Z,8.20
2019-02-15T07:05:32.072Z,8.60
2019-02-15T07:08:01.179Z,8.40
2019-02-15T07:10:30.312Z,9.17
2019-02-15T07:13:00.424Z,8.13
2019-02-15T07:15:33.799Z,8.50
2019-02-15T07:17:58.475Z,9.07
2019-02-15T07:20:27.888Z,8.63
2019-02-15T07:22:57.361Z,10.10
2019-02-15T07:25:26.457Z,9.37
2019-02-15T07:27:55.655Z,9.60
2019-02-15T07:30:26.751Z,9.50
2019-02-15T07:32:56.245Z,9.13
2019-02-15T07:35:25.440Z,9.30
2019-02-15T07:37:55.415Z,9.27
2019-02-15T07:40:24.576Z,9.50
2019-02-15T07:42:53.328Z,8.90
2019-02-15T07:45:23.188Z,8.70
2019-02-15T07:47:52.665Z,9.43
2019-02-15T07:50:21.490Z,9.17
2019-02-15T07:52:50.660Z,9.13
2019-02-15T07:55:19.982Z,8.97
2019-02-15T07:57:50.053Z,8.73
2019-02-15T08:00:19.704Z,8.93
2019-02-15T08:02:48.867Z,7.80
2019-02-15T08:05:18.172Z,8.07
2019-02-15T08:07:47.336Z,8.80
2019-02-15T08:10:16.917Z,8.03
2019-02-15T08:12:47.397Z,8.47
2019-02-15T08:15:16.934Z,8.40
2019-02-15T08:17:45.939Z,8.67
2019-02-15T08:20:15.111Z,8.60
2019-02-15T08:22:45.770Z,8.20
2019-02-15T08:25:16.096Z,7.80
2019-02-15T08:27:45.232Z,8.73
2019-02-15T08:30:14.037Z,8.20
2019-02-15T08:32:43.620Z,8.03
2019-02-15T08:35:12.448Z,8.00
2019-02-15T08:37:41.260Z,8.43
2019-02-15T08:40:10.331Z,7.80
2019-02-15T08:42:39.521Z,9.37
2019-02-15T08:45:10.639Z,7.77
2019-02-15T08:47:39.892Z,8.13
2019-02-15T08:50:09.255Z,7.90
2019-02-15T08:52:38.281Z,20.80
2019-02-15T08:55:07.961Z,72.03
2019-02-15T08:57:38.018Z,18.27
2019-02-15T09:00:08.173Z,33.90
2019-02-15T09:02:37.331Z,30.67
2019-02-15T09:05:07.620Z,16.50
2019-02-15T09:07:36.397Z,38.27
2019-02-15T09:10:06.879Z,31.93
2019-02-15T09:12:36.080Z,33.03
2019-02-15T09:15:07.121Z,28.23
2019-02-15T09:17:36.172Z,8.93
2019-02-15T09:20:05.720Z,7.43
2019-02-15T09:22:34.873Z,8.50
2019-02-15T09:25:04.207Z,8.07
2019-02-15T09:27:41.920Z,7.10
2019-02-15T09:30:12.842Z,7.40
2019-02-15T09:32:41.562Z,7.57
2019-02-15T09:35:10.627Z,5.63
2019-02-15T09:37:39.716Z,5.37
2019-02-15T09:40:09.231Z,4.90
2019-02-15T09:42:39.714Z,7.20
2019-02-15T09:45:10.652Z,6.90
2019-02-15T09:47:39.412Z,6.97
2019-02-15T09:50:09.845Z,7.73
2019-02-15T09:52:38.536Z,7.27
2019-02-15T09:55:06.963Z,7.20
2019-02-15T09:57:36.805Z,4.67
2019-02-15T10:00:06.050Z,6.83
2019-02-15T10:02:35.524Z,7.50
2019-02-15T10:05:04.443Z,7.47
2019-02-15T10:07:33.435Z,7.43
2019-02-15T10:10:02.527Z,6.67
2019-02-15T10:12:31.698Z,6.90
2019-02-15T10:15:01.395Z,7.77
2019-02-15T10:17:30.904Z,6.43
2019-02-15T10:20:00.678Z,6.33
2019-02-15T10:22:29.867Z,7.47
2019-02-15T10:24:59.580Z,7.00
2019-02-15T10:27:28.692Z,6.13
2019-02-15T10:29:58.213Z,6.77
2019-02-15T10:32:27.380Z,6.10
2019-02-15T10:34:56.871Z,7.03
2019-02-15T10:37:26.415Z,6.60
2019-02-15T10:39:55.786Z,6.33
2019-02-15T10:42:25.228Z,7.23
2019-02-15T10:44:54.637Z,7.33
2019-02-15T10:47:25.308Z,5.77
2019-02-15T10:49:53.351Z,6.80
2019-02-15T10:52:22.379Z,6.87
2019-02-15T10:54:52.008Z,6.27
2019-02-15T10:57:20.709Z,5.80
2019-02-15T10:59:50.230Z,6.60
2019-02-15T11:02:18.895Z,6.80
2019-02-15T11:04:48.556Z,5.97
2019-02-15T11:07:17.572Z,5.63
2019-02-15T11:09:47.003Z,7.03
2019-02-15T11:12:15.735Z,5.83
2019-02-15T11:14:45.184Z,6.80
2019-02-15T11:17:14.800Z,6.73
2019-02-15T11:19:44.314Z,6.50
2019-02-15T11:22:13.979Z,4.93
2019-02-15T11:24:43.564Z,6.37
2019-02-15T11:27:12.995Z,6.87
2019-02-15T11:29:42.112Z,6.33
2019-02-15T11:32:11.203Z,4.00
2019-02-15T11:34:40.755Z,6.20
2019-02-15T11:37:10.331Z,6.80
2019-02-15T11:39:40.569Z,6.47
2019-02-15T11:42:09.703Z,6.10
2019-02-15T11:44:40.584Z,6.70
2019-02-15T11:47:09.596Z,3.93
2019-02-15T11:49:39.263Z,7.20
2019-02-15T11:52:08.791Z,5.80
2019-02-15T11:54:38.536Z,5.57
2019-02-15T11:57:08.052Z,6.57
2019-02-15T11:59:37.173Z,5.97
2019-02-15T12:02:07.776Z,4.50
2019-02-15T12:04:37.324Z,6.20
2019-02-15T12:07:07.839Z,7.00
2019-02-15T12:09:36.848Z,4.40
2019-02-15T12:12:10.730Z,7.30
2019-02-15T12:14:35.820Z,5.43
2019-02-15T12:17:05.960Z,5.53
2019-02-15T12:19:34.757Z,6.87
2019-02-15T12:22:03.791Z,6.83
2019-02-15T12:24:33.263Z,5.60
2019-02-15T12:27:02.675Z,4.67
2019-02-15T12:29:32.087Z,7.37
2019-02-15T12:32:01.728Z,5.70
2019-02-15T12:34:31.374Z,5.77
2019-02-15T12:37:00.842Z,5.27
2019-02-15T12:39:30.358Z,5.23
2019-02-15T12:41:59.559Z,5.63
2019-02-15T12:44:28.776Z,3.93
2019-02-15T12:46:57.210Z,4.97
2019-02-15T12:49:26.636Z,6.20
2019-02-15T12:51:55.799Z,5.47
2019-02-15T12:54:27.385Z,7.57
2019-02-15T12:56:57.931Z,4.03
2019-02-15T12:59:26.821Z,6.40
2019-02-15T13:01:56.052Z,6.93
2019-02-15T13:04:25.554Z,6.50
2019-02-15T13:06:55.272Z,6.53
2019-02-15T13:09:24.326Z,5.53
2019-02-15T13:11:53.573Z,7.10
2019-02-15T13:14:22.249Z,6.30
2019-02-15T13:16:51.760Z,5.13
2019-02-15T13:19:20.852Z,3.90
2019-02-15T13:21:49.644Z,6.87
2019-02-15T13:24:19.196Z,3.50
2019-02-15T13:26:48.371Z,5.10
2019-02-15T13:29:17.839Z,5.77
2019-02-15T13:31:47.283Z,4.90
2019-02-15T13:34:17.391Z,3.43
2019-02-15T13:36:46.888Z,6.70
2019-02-15T13:39:15.694Z,4.77
2019-02-15T13:41:45.092Z,5.07
2019-02-15T13:44:14.692Z,4.63
2019-02-15T13:46:43.414Z,7.40
2019-02-15T13:49:13.135Z,8.23
2019-02-15T13:51:42.255Z,5.67
2019-02-15T13:54:12.844Z,7.47
2019-02-15T13:56:42.405Z,3.43
2019-02-15T13:59:13.423Z,7.93
2019-02-15T14:01:43.426Z,4.73
2019-02-15T14:04:12.560Z,8.13
2019-02-15T14:06:41.821Z,3.30
2019-02-15T14:09:11.175Z,4.53
2019-02-15T14:11:41.505Z,3.23
2019-02-15T14:14:10.744Z,8.30
2019-02-15T14:16:46.357Z,7.87
2019-02-15T14:19:15.360Z,6.23
2019-02-15T14:21:45.129Z,5.43
2019-02-15T14:24:15.639Z,4.60
2019-02-15T14:26:45.153Z,5.93
2019-02-15T14:29:14.740Z,4.30
2019-02-15T14:31:43.906Z,3.53
2019-02-15T14:34:13.386Z,4.93
2019-02-15T14:36:42.793Z,5.20
2019-02-15T14:39:12.479Z,6.57
2019-02-15T14:41:42.028Z,3.10
2019-02-15T14:44:11.882Z,5.00
2019-02-15T14:46:41.300Z,4.93
2019-02-15T14:49:10.854Z,7.10
2019-02-15T14:51:40.049Z,8.13
2019-02-15T14:54:10.277Z,6.10
2019-02-15T14:56:38.560Z,4.60
2019-02-15T14:59:07.304Z,5.57
2019-02-15T15:01:37.096Z,10.87
2019-02-15T15:04:06.213Z,10.40
2019-02-15T15:06:34.923Z,10.63
2019-02-15T15:09:05.176Z,9.63
2019-02-15T15:11:34.588Z,7.20
2019-02-15T15:14:05.390Z,5.17
2019-02-15T15:16:34.496Z,6.23
2019-02-15T15:19:04.067Z,10.37
2019-02-15T15:21:34.969Z,9.87
2019-02-15T15:24:02.715Z,8.13
2019-02-15T15:26:31.435Z,10.97
2019-02-15T15:29:00.955Z,10.10
2019-02-15T15:31:30.424Z,8.90
2019-02-15T15:33:59.430Z,3.50
2019-02-15T15:36:28.894Z,9.27
2019-02-15T15:38:58.565Z,4.23
2019-02-15T15:41:27.950Z,9.63
2019-02-15T15:43:57.419Z,10.20
2019-02-15T15:46:26.934Z,9.73
2019-02-15T15:48:56.104Z,8.70
2019-02-15T15:51:25.683Z,9.13
2019-02-15T15:53:55.193Z,9.57
2019-02-15T15:56:24.536Z,9.70
2019-02-15T15:58:54.060Z,9.03
2019-02-15T16:01:23.584Z,9.17
2019-02-15T16:03:53.312Z,9.47
2019-02-15T16:06:24.398Z,8.40
2019-02-15T16:08:51.922Z,7.77
2019-02-15T16:11:22.177Z,8.83
2019-02-15T16:13:51.186Z,7.57
2019-02-15T16:16:20.640Z,9.03
2019-02-15T16:18:50.704Z,9.57
2019-02-15T16:21:21.992Z,9.27
2019-02-15T16:23:50.576Z,9.40
2019-02-15T16:26:18.544Z,9.27
2019-02-15T16:28:47.248Z,9.67
2019-02-15T16:31:16.791Z,10.10
2019-02-15T16:33:45.812Z,10.33
2019-02-15T16:36:15.309Z,7.90
2019-02-15T16:38:44.882Z,10.73
2019-02-15T16:41:14.375Z,10.63
2019-02-15T16:43:43.378Z,10.57
2019-02-15T16:46:12.998Z,10.23
2019-02-15T16:48:42.768Z,10.43
2019-02-15T16:51:12.404Z,10.47
2019-02-15T16:53:41.568Z,10.80
2019-02-15T16:56:10.601Z,11.67
2019-02-15T16:58:40.075Z,10.60
2019-02-15T17:01:10.492Z,9.90
2019-02-15T17:03:39.980Z,10.63
2019-02-15T17:06:09.121Z,10.27
2019-02-15T17:08:38.272Z,9.87
2019-02-15T17:11:07.795Z,11.20
2019-02-15T17:13:38.049Z,11.40
2019-02-15T17:16:07.283Z,12.70
2019-02-15T17:18:36.817Z,11.80
2019-02-15T17:21:06.056Z,13.67
2019-02-15T17:23:35.462Z,14.13
2019-02-15T17:26:04.634Z,14.30
2019-02-15T17:28:33.660Z,11.97
2019-02-15T17:31:03.239Z,12.20
2019-02-15T17:33:32.122Z,12.97
2019-02-15T17:36:01.296Z,12.07
2019-02-15T17:38:30.927Z,14.37
2019-02-15T17:40:59.996Z,13.73
2019-02-15T17:43:30.246Z,12.73
2019-02-15T17:45:59.852Z,12.60
2019-02-15T17:48:29.319Z,12.63
2019-02-15T17:50:58.556Z,12.43
2019-02-15T17:53:28.035Z,14.13
2019-02-15T17:55:57.481Z,13.17
2019-02-15T17:58:27.096Z,13.03
2019-02-15T18:00:56.847Z,14.40
2019-02-15T18:03:26.032Z,20.10
2019-02-15T18:05:55.540Z,13.17
2019-02-15T18:08:24.952Z,13.90
2019-02-15T18:10:54.428Z,16.43
2019-02-15T18:13:23.853Z,16.57
2019-02-15T18:15:54.389Z,13.50
2019-02-15T18:18:23.091Z,11.93
2019-02-15T18:20:52.503Z,12.83
2019-02-15T18:23:21.972Z,12.50
2019-02-15T18:25:51.540Z,12.80
2019-02-15T18:28:20.916Z,12.60
2019-02-15T18:30:50.578Z,11.67
2019-02-15T18:33:19.827Z,12.70
2019-02-15T18:35:49.351Z,12.00
2019-02-15T18:38:18.912Z,11.50
2019-02-15T18:40:48.336Z,13.00
2019-02-15T18:43:17.783Z,12.17
2019-02-15T18:45:46.630Z,12.13
2019-02-15T18:48:16.094Z,11.77
2019-02-15T18:50:45.589Z,12.00
2019-02-15T18:53:15.168Z,11.77
2019-02-15T18:55:44.407Z,12.20
2019-02-15T18:58:14.670Z,11.70
2019-02-15T19:00:44.211Z,11.83
2019-02-15T19:03:13.451Z,12.60
2019-02-15T19:05:43.876Z,11.37
2019-02-15T19:08:13.278Z,12.93
2019-02-15T19:10:42.457Z,12.80
2019-02-15T19:13:11.935Z,13.80
2019-02-15T19:15:41.411Z,12.17
2019-02-15T19:18:10.899Z,16.40
2019-02-15T19:20:40.370Z,20.47
2019-02-15T19:23:09.974Z,20.07
2019-02-15T19:25:40.276Z,19.10
2019-02-15T19:28:09.889Z,18.07
2019-02-15T19:30:38.841Z,17.87
2019-02-15T19:33:08.159Z,17.57
2019-02-15T19:35:37.664Z,9.67
2019-02-15T19:38:07.185Z,17.77
2019-02-15T19:40:36.640Z,21.20
2019-02-15T19:43:05.697Z,20.63
2019-02-15T19:45:35.183Z,22.03
2019-02-15T19:48:04.229Z,23.07
2019-02-15T19:50:33.008Z,30.63
2019-02-15T19:53:02.736Z,21.13
2019-02-15T19:55:32.196Z,21.63
2019-02-15T19:58:01.303Z,16.87
2019-02-15T20:00:30.888Z,15.83
2019-02-15T20:03:00.055Z,14.10
2019-02-15T20:05:29.630Z,13.63
2019-02-15T20:07:59.259Z,14.17
2019-02-15T20:10:28.174Z,13.00
2019-02-15T20:12:56.979Z,11.90
2019-02-15T20:15:26.401Z,12.53
2019-02-15T20:17:56.049Z,13.60
2019-02-15T20:20:25.873Z,14.90
2019-02-15T20:22:54.751Z,13.80
2019-02-15T20:25:23.765Z,12.57
2019-02-15T20:27:53.253Z,11.47
2019-02-15T20:30:22.907Z,10.97
2019-02-15T20:32:52.696Z,12.13
2019-02-15T20:35:22.172Z,11.80
2019-02-15T20:37:51.764Z,12.30
2019-02-15T20:40:21.380Z,10.93
2019-02-15T20:42:51.974Z,11.10
2019-02-15T20:45:21.908Z,11.90
2019-02-15T20:47:51.943Z,10.90
2019-02-15T20:50:21.371Z,12.17
2019-02-15T20:52:50.458Z,11.53
2019-02-15T20:55:19.544Z,11.53
2019-02-15T20:57:49.365Z,11.67
2019-02-15T21:00:21.445Z,10.90
2019-02-15T21:02:50.660Z,10.93
2019-02-15T21:05:20.079Z,10.93
2019-02-15T21:07:49.255Z,11.80
2019-02-15T21:10:18.519Z,13.37
2019-02-15T21:12:48.807Z,12.60
2019-02-15T21:15:18.311Z,12.23
2019-02-15T21:17:47.711Z,10.97
2019-02-15T21:20:16.915Z,9.60
2019-02-15T21:22:46.324Z,9.27
2019-02-15T21:25:16.677Z,10.07
2019-02-15T21:27:46.144Z,10.67
2019-02-15T21:30:15.676Z,10.50
2019-02-15T21:32:45.284Z,11.23
2019-02-15T21:35:14.287Z,9.67
2019-02-15T21:37:43.717Z,10.87
2019-02-15T21:40:13.996Z,10.63
2019-02-15T21:42:43.539Z,10.57
2019-02-15T21:45:12.448Z,10.17
2019-02-15T21:47:41.387Z,9.77
2019-02-15T21:50:16.648Z,10.60
2019-02-15T21:52:44.160Z,10.87
2019-02-15T21:55:08.325Z,9.90
